Time;durP1;ratioP1;P1;durP2;ratioP2;P2;SDS_P1;SDS_P2;PMS_P1;PMS_P2;Temp;Humidity;BMP_temperature;BMP_pressure;BME280_temperature;BME280_humidity;BME280_pressure;Samples;Min_cycle;Max_cycle;Signal;HPM_P1;HPM_P2
2021/03/03 00:00:23;;;;;;;24.10;13.07;;;8.10;74.60;;;;;;5053874;28;20036;-76
2021/03/03 00:02:48;;;;;;;27.10;13.35;;;8.10;74.70;;;;;;5055234;28;20025;-75
2021/03/03 00:05:14;;;;;;;27.38;13.73;;;8.10;74.70;;;;;;5052544;28;20099;-76
2021/03/03 00:07:40;;;;;;;26.48;13.88;;;8.00;74.70;;;;;;5037309;28;20036;-76
2021/03/03 00:10:06;;;;;;;27.20;13.10;;;8.00;74.70;;;;;;5055000;28;20363;-75
2021/03/03 00:12:32;;;;;;;24.92;13.18;;;8.00;74.70;;;;;;5054731;28;20023;-76
2021/03/03 00:14:57;;;;;;;22.80;13.27;;;8.00;74.70;;;;;;5053548;28;20112;-76
2021/03/03 00:17:23;;;;;;;25.50;13.30;;;8.00;74.80;;;;;;5053379;28;20442;-76
2021/03/03 00:19:48;;;;;;;28.05;14.10;;;8.00;74.80;;;;;;5053891;28;20501;-76
2021/03/03 00:22:14;;;;;;;24.15;13.52;;;8.00;74.80;;;;;;5054799;28;20021;-76
2021/03/03 00:24:41;;;;;;;23.48;13.05;;;8.00;74.90;;;;;;5053573;28;20105;-76
2021/03/03 00:27:06;;;;;;;28.70;13.50;;;8.00;75.00;;;;;;5053393;28;20021;-76
2021/03/03 00:29:32;;;;;;;27.88;13.80;;;7.90;75.00;;;;;;5036727;28;20029;-75
2021/03/03 00:31:57;;;;;;;25.85;12.98;;;7.90;75.10;;;;;;5053401;28;20040;-76
2021/03/03 00:34:23;;;;;;;23.20;12.55;;;7.90;75.30;;;;;;5036583;28;20048;-76
2021/03/03 00:36:49;;;;;;;22.88;12.60;;;7.80;75.40;;;;;;5020149;28;20116;-75
2021/03/03 00:39:14;;;;;;;21.60;12.93;;;7.80;75.50;;;;;;5020319;28;20035;-76
2021/03/03 00:41:40;;;;;;;27.77;13.88;;;7.70;75.50;;;;;;5053152;28;20397;-75
2021/03/03 00:44:05;;;;;;;19.70;12.02;;;7.70;75.70;;;;;;5038278;28;20033;-76
2021/03/03 00:46:31;;;;;;;22.90;12.75;;;7.70;75.70;;;;;;5052941;28;20044;-76
2021/03/03 00:48:57;;;;;;;24.92;13.32;;;7.60;75.70;;;;;;5020085;28;20025;-76
2021/03/03 00:51:22;;;;;;;22.58;12.65;;;7.60;75.80;;;;;;5036335;28;20456;-76
2021/03/03 00:53:48;;;;;;;25.55;13.63;;;7.60;75.80;;;;;;5036185;28;20123;-76
2021/03/03 00:56:13;;;;;;;22.45;13.60;;;7.60;76.00;;;;;;5054118;28;20029;-76
2021/03/03 00:58:39;;;;;;;21.40;12.85;;;7.60;76.00;;;;;;5054162;28;20040;-76
2021/03/03 01:01:05;;;;;;;24.25;12.63;;;7.50;76.00;;;;;;5052752;28;20066;-76
2021/03/03 01:03:30;;;;;;;29.08;13.55;;;7.50;76.00;;;;;;5052674;28;20051;-76
2021/03/03 01:05:56;;;;;;;27.42;13.45;;;7.50;76.10;;;;;;5036190;28;20025;-76
2021/03/03 01:08:22;;;;;;;22.88;13.07;;;7.40;76.20;;;;;;5019988;28;20040;-77
2021/03/03 01:10:47;;;;;;;23.35;13.48;;;7.40;76.30;;;;;;5036080;28;20448;-76
2021/03/03 01:13:13;;;;;;;29.17;15.40;;;7.40;77.00;;;;;;5052566;28;20040;-76
2021/03/03 01:15:39;;;;;;;22.48;13.05;;;7.40;76.40;;;;;;5052689;28;20117;-76
2021/03/03 01:18:04;;;;;;;23.52;13.50;;;7.30;76.40;;;;;;5052291;28;20115;-76
2021/03/03 01:20:31;;;;;;;26.15;13.38;;;7.30;76.50;;;;;;5052623;28;20021;-76
2021/03/03 01:22:58;;;;;;;25.73;13.73;;;7.30;77.20;;;;;;5052568;28;20021;-77
2021/03/03 01:25:24;;;;;;;27.35;14.05;;;7.20;76.60;;;;;;5052109;28;20033;-76
2021/03/03 01:27:49;;;;;;;26.50;13.88;;;7.20;76.60;;;;;;5052612;28;20496;-76
2021/03/03 01:30:15;;;;;;;22.27;12.85;;;7.20;76.70;;;;;;5035945;28;20632;-76
2021/03/03 01:32:41;;;;;;;23.33;12.93;;;7.20;76.70;;;;;;5051956;28;20033;-77
2021/03/03 01:35:08;;;;;;;24.27;12.80;;;7.20;76.80;;;;;;5052413;28;20048;-76
2021/03/03 01:37:33;;;;;;;25.02;12.35;;;7.20;76.90;;;;;;5052327;28;20021;-77
2021/03/03 01:39:59;;;;;;;22.98;12.73;;;7.10;76.90;;;;;;5052272;28;20107;-76
2021/03/03 01:42:25;;;;;;;21.67;13.43;;;7.10;76.90;;;;;;5053384;28;20025;-76
2021/03/03 01:44:50;;;;;;;24.60;12.85;;;7.10;77.00;;;;;;5052281;28;20083;-82
2021/03/03 01:47:16;;;;;;;22.58;12.57;;;7.00;77.10;;;;;;5053616;28;20031;-82
2021/03/03 01:49:41;;;;;;;22.80;12.98;;;7.00;77.20;;;;;;5053559;28;20036;-82
2021/03/03 01:52:08;;;;;;;25.83;13.18;;;6.90;77.20;;;;;;5052380;28;20096;-82
2021/03/03 01:54:33;;;;;;;24.98;13.10;;;7.00;77.30;;;;;;5053316;28;20033;-82
2021/03/03 01:57:01;;;;;;;22.83;13.13;;;6.90;77.30;;;;;;5052207;28;20029;-83
2021/03/03 01:59:27;;;;;;;28.20;13.40;;;6.90;77.30;;;;;;5052063;28;20017;-83
2021/03/03 02:01:53;;;;;;;24.70;13.88;;;6.90;77.40;;;;;;5019150;28;20029;-83
2021/03/03 02:04:18;;;;;;;21.25;13.02;;;6.90;77.40;;;;;;5052360;28;20062;-83
2021/03/03 02:06:46;;;;;;;21.02;12.32;;;6.90;77.40;;;;;;5052111;28;20101;-83
2021/03/03 02:09:30;;;;;;;23.13;12.80;;;6.90;77.50;;;;;;5051711;28;20029;-82
2021/03/03 02:12:16;;;;;;;23.73;12.43;;;6.80;77.60;;;;;;5053293;28;20036;-82
2021/03/03 02:14:53;;;;;;;26.27;13.57;;;6.80;77.70;;;;;;5052041;28;20394;-83
2021/03/03 02:17:23;;;;;;;26.48;13.38;;;6.80;77.70;;;;;;5052069;28;20074;-83
2021/03/03 02:19:49;;;;;;;24.42;13.27;;;6.80;77.60;;;;;;5053518;28;20021;-83
2021/03/03 02:22:30;;;;;;;23.13;13.07;;;6.80;77.50;;;;;;5053210;28;20036;-83
2021/03/03 02:25:22;;;;;;;25.40;12.90;;;6.80;77.60;;;;;;5052001;28;20378;-82
2021/03/03 02:27:49;;;;;;;31.98;13.57;;;6.90;77.60;;;;;;5051917;28;20116;-82
2021/03/03 02:30:16;;;;;;;22.80;13.27;;;6.80;77.40;;;;;;5022578;28;20441;-82
2021/03/03 02:32:42;;;;;;;26.45;13.68;;;6.80;77.40;;;;;;5055859;28;20082;-82
2021/03/03 02:35:10;;;;;;;25.08;12.95;;;6.80;77.40;;;;;;5039407;28;20109;-82
2021/03/03 02:37:37;;;;;;;25.13;12.82;;;6.80;77.60;;;;;;5055846;28;20036;-83
2021/03/03 02:40:08;;;;;;;28.65;12.82;;;6.80;77.60;;;;;;5055815;28;20397;-82
2021/03/03 02:42:36;;;;;;;25.83;12.13;;;6.70;77.70;;;;;;5055839;28;20025;-82
2021/03/03 02:45:04;;;;;;;25.50;13.95;;;6.80;77.80;;;;;;5039549;28;20032;-82
2021/03/03 02:47:30;;;;;;;29.17;12.52;;;6.80;77.80;;;;;;5055540;28;20100;-83
2021/03/03 02:49:57;;;;;;;21.60;12.32;;;6.70;77.80;;;;;;5056828;28;20159;-82
2021/03/03 02:52:23;;;;;;;24.65;13.35;;;6.80;77.90;;;;;;5067810;28;20451;-82
2021/03/03 02:54:48;;;;;;;24.45;13.15;;;6.70;77.90;;;;;;5075464;28;20123;-83
2021/03/03 02:57:14;;;;;;;23.73;12.45;;;6.70;77.80;;;;;;5042205;28;20120;-82
2021/03/03 02:59:50;;;;;;;25.60;12.75;;;6.70;77.90;;;;;;5035519;28;20048;-83
2021/03/03 03:02:20;;;;;;;24.23;12.60;;;6.70;77.90;;;;;;5055178;28;20425;-82
2021/03/03 03:04:47;;;;;;;24.40;12.98;;;6.70;77.80;;;;;;5055307;28;20061;-82
2021/03/03 03:07:18;;;;;;;26.20;13.25;;;6.70;77.80;;;;;;5055218;28;20032;-83
2021/03/03 03:09:45;;;;;;;28.13;13.80;;;6.70;77.90;;;;;;5055149;28;20033;-83
2021/03/03 03:12:14;;;;;;;22.52;12.18;;;6.70;77.90;;;;;;5054844;28;20040;-76
2021/03/03 03:14:40;;;;;;;25.50;12.32;;;6.70;78.00;;;;;;5054862;28;20029;-76
2021/03/03 03:17:08;;;;;;;25.10;12.45;;;6.70;78.00;;;;;;5054679;28;20032;-77
2021/03/03 03:19:43;;;;;;;22.88;12.68;;;6.60;78.00;;;;;;5054951;28;20031;-76
2021/03/03 03:22:12;;;;;;;22.67;12.35;;;6.60;78.10;;;;;;5054731;28;20489;-76
2021/03/03 03:24:38;;;;;;;24.38;12.80;;;6.60;78.10;;;;;;5038022;28;20032;-77
2021/03/03 03:27:05;;;;;;;25.58;12.98;;;6.60;78.20;;;;;;5054619;28;20071;-76
2021/03/03 03:29:33;;;;;;;28.13;13.07;;;6.60;78.30;;;;;;5054434;28;20033;-76
2021/03/03 03:31:59;;;;;;;27.13;12.65;;;6.60;78.40;;;;;;5037533;28;20033;-77
2021/03/03 03:34:25;;;;;;;26.00;13.27;;;6.60;78.50;;;;;;5053789;28;20033;-77
2021/03/03 03:36:52;;;;;;;22.88;12.75;;;6.50;78.50;;;;;;5020449;28;20116;-76
2021/03/03 03:39:17;;;;;;;28.00;13.00;;;6.50;78.60;;;;;;5053955;28;20418;-76
2021/03/03 03:41:46;;;;;;;23.42;12.30;;;6.50;78.70;;;;;;5054490;28;20059;-77
2021/03/03 03:44:13;;;;;;;26.98;13.10;;;6.50;78.80;;;;;;5053758;28;20029;-77
2021/03/03 03:46:43;;;;;;;32.42;14.00;;;6.40;78.80;;;;;;5053689;28;20028;-76
2021/03/03 03:49:09;;;;;;;24.80;13.10;;;6.40;79.00;;;;;;5054057;28;20509;-77
2021/03/03 03:51:39;;;;;;;24.50;13.43;;;6.40;79.10;;;;;;5037210;28;20039;-76
2021/03/03 03:54:07;;;;;;;25.63;13.18;;;6.40;79.20;;;;;;5055419;28;20482;-76
2021/03/03 03:56:34;;;;;;;26.70;13.75;;;6.40;79.20;;;;;;5054273;28;20025;-76
2021/03/03 03:58:59;;;;;;;25.08;12.63;;;6.40;79.30;;;;;;5021429;28;20036;-77
2021/03/03 04:01:25;;;;;;;21.40;12.88;;;6.40;79.30;;;;;;5053476;28;20017;-76
2021/03/03 04:03:51;;;;;;;24.45;13.02;;;6.40;79.40;;;;;;5035940;28;20039;-76
2021/03/03 04:06:16;;;;;;;26.15;13.23;;;6.30;79.30;;;;;;5036090;28;20366;-76
2021/03/03 04:08:42;;;;;;;31.30;13.82;;;6.30;79.40;;;;;;5052998;28;20097;-76
2021/03/03 04:11:08;;;;;;;26.48;13.32;;;6.30;79.40;;;;;;5053147;28;20025;-76
2021/03/03 04:13:33;;;;;;;26.92;13.38;;;6.30;79.40;;;;;;5035525;28;20037;-76
2021/03/03 04:15:59;;;;;;;21.60;12.90;;;6.30;79.40;;;;;;5051944;28;20478;-76
2021/03/03 04:18:24;;;;;;;23.55;12.85;;;6.30;79.30;;;;;;5084137;28;20121;-76
2021/03/03 04:20:50;;;;;;;23.27;13.60;;;6.30;79.40;;;;;;5053389;28;20032;-76
2021/03/03 04:23:16;;;;;;;24.80;13.50;;;6.30;79.50;;;;;;5035341;28;20033;-76
2021/03/03 04:25:42;;;;;;;23.95;13.25;;;6.30;79.60;;;;;;5051717;28;20044;-76
2021/03/03 04:28:08;;;;;;;27.52;13.57;;;6.30;79.60;;;;;;5052927;28;20025;-76
2021/03/03 04:30:34;;;;;;;23.00;12.98;;;6.30;79.60;;;;;;5051966;28;20025;-76
2021/03/03 04:33:00;;;;;;;26.30;13.68;;;6.30;79.70;;;;;;5051521;28;20082;-76
2021/03/03 04:35:26;;;;;;;26.60;13.70;;;6.20;79.70;;;;;;5051307;28;20041;-76
2021/03/03 04:37:52;;;;;;;26.80;12.52;;;6.20;79.80;;;;;;5051537;28;20393;-76
2021/03/03 04:40:18;;;;;;;24.58;13.75;;;6.30;79.80;;;;;;5052776;28;20033;-76
2021/03/03 04:42:44;;;;;;;26.48;13.38;;;6.20;79.80;;;;;;5051468;28;20363;-76
2021/03/03 04:45:12;;;;;;;26.90;13.23;;;6.20;79.80;;;;;;5051596;28;20024;-76
2021/03/03 04:47:39;;;;;;;28.02;13.43;;;6.20;79.80;;;;;;5051008;28;20033;-76
2021/03/03 04:50:07;;;;;;;25.60;13.57;;;6.30;79.90;;;;;;5051838;28;20099;-76
2021/03/03 04:52:32;;;;;;;29.58;13.43;;;6.20;80.00;;;;;;5050392;28;20037;-77
2021/03/03 04:54:58;;;;;;;22.17;13.13;;;6.20;80.10;;;;;;5050898;28;20886;-76
2021/03/03 04:57:24;;;;;;;25.33;13.50;;;6.20;80.10;;;;;;5034887;28;20036;-76
2021/03/03 04:59:50;;;;;;;25.40;13.15;;;6.20;80.20;;;;;;5050820;28;20021;-80
2021/03/03 05:02:15;;;;;;;26.98;12.45;;;6.20;80.30;;;;;;5018110;28;20102;-81
2021/03/03 05:04:41;;;;;;;26.45;12.80;;;6.20;80.30;;;;;;5052484;28;20120;-80
2021/03/03 05:07:07;;;;;;;23.65;13.10;;;6.20;80.30;;;;;;5052567;28;20461;-80
2021/03/03 05:09:32;;;;;;;26.13;12.82;;;6.20;80.30;;;;;;5034661;28;20043;-81
2021/03/03 05:11:58;;;;;;;24.25;13.02;;;6.10;80.30;;;;;;5034319;28;20037;-81
2021/03/03 05:14:23;;;;;;;25.02;13.05;;;6.10;80.30;;;;;;5065049;28;20052;-81
2021/03/03 05:16:49;;;;;;;26.27;13.52;;;6.20;80.40;;;;;;5033727;28;20489;-81
2021/03/03 05:19:15;;;;;;;23.95;13.90;;;6.10;80.30;;;;;;5051670;28;20024;-80
2021/03/03 05:21:40;;;;;;;25.75;13.63;;;6.20;80.30;;;;;;5033827;28;20029;-81
2021/03/03 05:24:06;;;;;;;28.30;14.45;;;6.20;80.20;;;;;;5051025;28;20089;-81
2021/03/03 05:26:32;;;;;;;25.27;12.77;;;6.20;80.20;;;;;;5017142;28;20060;-81
2021/03/03 05:28:58;;;;;;;26.38;13.73;;;6.20;80.10;;;;;;5049053;28;20033;-81
2021/03/03 05:31:23;;;;;;;25.17;13.63;;;6.20;80.10;;;;;;5048457;28;20522;-80
2021/03/03 05:33:49;;;;;;;25.80;13.70;;;6.30;80.00;;;;;;5032507;28;20440;-81
2021/03/03 05:36:15;;;;;;;23.00;13.27;;;6.30;80.00;;;;;;5032566;28;20045;-80
2021/03/03 05:38:41;;;;;;;24.90;12.95;;;6.30;80.00;;;;;;5031455;28;20050;-81
2021/03/03 05:41:09;;;;;;;26.90;13.85;;;6.30;79.90;;;;;;5048135;28;20033;-80
2021/03/03 05:43:36;;;;;;;28.77;13.48;;;6.40;80.60;;;;;;5064988;28;20044;-81
2021/03/03 05:46:03;;;;;;;28.00;14.00;;;6.40;79.90;;;;;;5064293;28;20039;-81
2021/03/03 05:48:43;;;;;;;32.75;15.10;;;6.40;79.90;;;;;;5046948;28;20068;-81
2021/03/03 05:51:10;;;;;;;26.55;14.52;;;6.40;80.00;;;;;;5046882;28;20029;-81
2021/03/03 05:53:36;;;;;;;29.38;13.85;;;6.40;79.90;;;;;;5031304;28;20107;-81
2021/03/03 05:56:03;;;;;;;29.75;15.40;;;6.40;79.90;;;;;;5049464;28;20440;-81
2021/03/03 05:58:32;;;;;;;26.25;14.27;;;6.40;80.00;;;;;;5050153;28;20044;-81
2021/03/03 06:00:59;;;;;;;30.10;13.77;;;6.50;80.10;;;;;;5048086;28;20025;-81
2021/03/03 06:03:26;;;;;;;28.30;14.00;;;6.40;80.10;;;;;;5050961;28;20025;-80
2021/03/03 06:05:53;;;;;;;25.30;14.18;;;6.40;80.30;;;;;;5056172;28;20075;-81
2021/03/03 06:08:21;;;;;;;30.02;14.35;;;6.40;80.30;;;;;;5060943;28;20052;-80
2021/03/03 06:10:47;;;;;;;26.80;14.57;;;6.40;80.30;;;;;;5050947;28;20056;-80
2021/03/03 06:13:13;;;;;;;28.15;13.70;;;6.40;80.40;;;;;;5034068;28;20504;-80
2021/03/03 06:15:40;;;;;;;28.42;14.52;;;6.40;80.40;;;;;;5034086;28;20033;-80
2021/03/03 06:18:11;;;;;;;26.17;14.00;;;6.30;80.40;;;;;;5033717;28;20037;-80
2021/03/03 06:20:47;;;;;;;30.60;14.20;;;6.30;80.50;;;;;;5050205;28;20033;-80
2021/03/03 06:23:16;;;;;;;23.30;13.20;;;6.30;80.50;;;;;;5047930;28;20024;-80
2021/03/03 06:25:42;;;;;;;27.17;14.50;;;6.30;80.60;;;;;;5082874;28;20044;-80
2021/03/03 06:28:09;;;;;;;30.67;15.10;;;6.30;80.60;;;;;;5051839;28;20375;-80
2021/03/03 06:30:35;;;;;;;30.58;13.48;;;6.20;80.60;;;;;;5035274;28;20029;-80
2021/03/03 06:33:01;;;;;;;27.65;13.95;;;6.20;80.80;;;;;;5034805;28;20037;-81
2021/03/03 06:35:36;;;;;;;28.05;15.02;;;6.20;80.80;;;;;;5051659;28;20084;-80
2021/03/03 06:38:04;;;;;;;26.65;14.80;;;6.10;81.00;;;;;;5051573;28;20594;-80
2021/03/03 06:40:30;;;;;;;25.83;14.05;;;6.10;80.90;;;;;;5052838;28;20057;-80
2021/03/03 06:42:56;;;;;;;29.35;14.80;;;6.10;80.90;;;;;;5051675;28;20067;-80
2021/03/03 06:45:31;;;;;;;28.73;14.52;;;6.10;80.90;;;;;;5028890;28;20038;-80
2021/03/03 06:47:58;;;;;;;30.25;14.05;;;6.10;81.10;;;;;;5052831;28;20036;-80
2021/03/03 06:50:35;;;;;;;31.63;14.70;;;6.10;80.90;;;;;;5035067;28;20068;-80
2021/03/03 06:53:01;;;;;;;31.98;14.45;;;6.10;81.00;;;;;;5051623;28;20112;-80
2021/03/03 06:55:47;;;;;;;29.83;14.25;;;6.20;80.90;;;;;;5051722;28;20079;-80
2021/03/03 06:58:23;;;;;;;31.45;14.93;;;6.20;81.10;;;;;;5051543;28;20021;-80
2021/03/03 07:00:49;;;;;;;30.30;14.98;;;6.30;81.00;;;;;;5051558;28;20040;-80
2021/03/03 07:03:34;;;;;;;27.27;14.93;;;6.30;80.70;;;;;;5052777;28;20029;-80
2021/03/03 07:06:02;;;;;;;27.02;14.77;;;6.40;80.70;;;;;;5051168;28;20111;-80
2021/03/03 07:08:28;;;;;;;31.27;14.20;;;6.50;80.40;;;;;;5050649;28;20032;-80
2021/03/03 07:10:54;;;;;;;29.23;14.98;;;6.60;80.30;;;;;;5034737;28;20033;-82
2021/03/03 07:13:41;;;;;;;28.92;14.02;;;6.80;80.20;;;;;;5051051;28;20032;-82
2021/03/03 07:16:08;;;;;;;27.73;14.25;;;6.90;80.00;;;;;;5054550;28;20025;-82
2021/03/03 07:18:38;;;;;;;31.75;16.30;;;7.00;79.90;;;;;;5055166;28;20021;-82
2021/03/03 07:21:06;;;;;;;32.40;16.38;;;7.00;79.90;;;;;;5055349;28;20090;-82
2021/03/03 07:23:48;;;;;;;28.98;15.60;;;7.10;80.40;;;;;;5053013;28;20041;-82
2021/03/03 07:26:16;;;;;;;28.15;14.68;;;7.20;79.70;;;;;;5054966;28;20133;-82
2021/03/03 07:28:42;;;;;;;33.28;16.10;;;7.30;79.40;;;;;;5038495;28;20033;-82
2021/03/03 07:31:09;;;;;;;31.77;15.77;;;7.40;79.30;;;;;;5054799;28;20028;-82
2021/03/03 07:33:34;;;;;;;28.08;14.75;;;7.50;79.30;;;;;;5054736;28;20036;-82
2021/03/03 07:36:02;;;;;;;34.15;16.20;;;7.60;79.20;;;;;;5054678;28;20536;-82
2021/03/03 07:38:35;;;;;;;32.63;15.00;;;7.60;79.00;;;;;;5054618;28;20390;-81
2021/03/03 07:41:07;;;;;;;26.45;14.40;;;7.70;78.90;;;;;;5054558;28;20114;-80
2021/03/03 07:43:33;;;;;;;26.80;13.98;;;7.80;78.80;;;;;;5054614;28;20033;-82
2021/03/03 07:46:06;;;;;;;29.88;14.60;;;7.90;78.60;;;;;;5054629;28;20420;-82
2021/03/03 07:48:34;;;;;;;23.25;14.23;;;7.90;78.50;;;;;;5055897;28;20025;-82
2021/03/03 07:51:01;;;;;;;28.20;14.23;;;8.00;78.30;;;;;;5054441;28;20031;-82
2021/03/03 07:53:27;;;;;;;30.40;14.98;;;8.10;78.30;;;;;;5054406;28;20108;-82
2021/03/03 07:55:58;;;;;;;29.10;14.32;;;8.10;78.10;;;;;;5037672;28;20013;-81
2021/03/03 07:58:27;;;;;;;30.70;15.02;;;8.20;78.30;;;;;;5038125;28;20385;-82
2021/03/03 08:00:53;;;;;;;29.38;15.18;;;8.30;78.30;;;;;;5054349;28;20389;-82
2021/03/03 08:03:42;;;;;;;28.38;15.13;;;8.30;78.50;;;;;;5037656;28;20040;-82
2021/03/03 08:06:19;;;;;;;25.83;14.98;;;8.40;78.20;;;;;;5055305;28;20024;-82
2021/03/03 08:09:05;;;;;;;29.73;15.02;;;8.50;78.00;;;;;;5055337;28;20103;-82
2021/03/03 08:11:31;;;;;;;30.20;15.55;;;8.60;77.80;;;;;;5054137;28;20397;-82
2021/03/03 08:13:57;;;;;;;25.55;14.50;;;8.60;77.50;;;;;;5055258;28;20032;-82
2021/03/03 08:16:22;;;;;;;33.15;15.65;;;8.70;77.30;;;;;;5054037;28;20405;-82
2021/03/03 08:18:48;;;;;;;35.47;16.08;;;8.90;77.10;;;;;;5037509;28;20075;-81
2021/03/03 08:21:16;;;;;;;30.88;15.15;;;9.00;76.80;;;;;;5054111;28;20063;-81
2021/03/03 08:23:44;;;;;;;29.50;14.98;;;9.10;76.40;;;;;;5055066;28;20025;-81
2021/03/03 08:26:16;;;;;;;25.60;14.73;;;9.30;76.10;;;;;;5052840;28;20096;-81
2021/03/03 08:28:44;;;;;;;33.50;15.30;;;9.40;75.70;;;;;;5053657;28;20485;-81
2021/03/03 08:31:10;;;;;;;30.35;15.60;;;9.50;75.40;;;;;;5054758;28;20498;-81
2021/03/03 08:33:48;;;;;;;29.45;15.10;;;9.60;75.10;;;;;;5053423;28;20047;-81
2021/03/03 08:36:27;;;;;;;26.45;15.65;;;9.60;74.80;;;;;;5053508;28;20119;-82
2021/03/03 08:38:56;;;;;;;;;;;9.70;74.90;;;;;;5053945;28;20449;-82
2021/03/03 08:41:30;;;;;;;34.33;16.30;;;9.70;74.80;;;;;;5053953;28;19912;-82
2021/03/03 08:44:06;;;;;;;28.52;15.00;;;9.70;74.80;;;;;;5053282;28;20074;-81
2021/03/03 08:46:33;;;;;;;28.70;15.65;;;9.80;74.60;;;;;;5054672;28;20025;-81
2021/03/03 08:48:59;;;;;;;29.60;16.30;;;10.00;74.30;;;;;;5053343;28;20112;-81
2021/03/03 08:51:31;;;;;;;32.50;15.57;;;10.20;74.10;;;;;;5054508;28;20095;-82
2021/03/03 08:53:59;;;;;;;31.90;17.02;;;10.50;73.60;;;;;;5054544;28;20436;-81
2021/03/03 08:56:41;;;;;;;37.92;18.95;;;10.60;72.90;;;;;;5054228;28;20024;-79
2021/03/03 08:59:33;;;;;;;37.83;18.23;;;10.80;72.60;;;;;;5053953;28;20540;-79
2021/03/03 09:02:08;;;;;;;37.22;19.55;;;11.10;72.30;;;;;;5052286;28;20057;-79
2021/03/03 09:04:40;;;;;;;38.03;19.70;;;11.30;72.00;;;;;;5052325;28;20029;-79
2021/03/03 09:07:27;;;;;;;33.80;18.25;;;11.50;71.40;;;;;;5052559;28;20389;-79
2021/03/03 09:09:57;;;;;;;39.08;21.38;;;11.60;71.20;;;;;;5045424;28;20095;-79
2021/03/03 09:12:28;;;;;;;44.95;23.63;;;11.70;70.70;;;;;;5052132;28;20122;-79
2021/03/03 09:14:56;;;;;;;45.30;23.60;;;11.70;71.20;;;;;;5051679;28;20088;-79
2021/03/03 09:17:34;;;;;;;43.45;23.48;;;11.80;70.10;;;;;;5052300;28;20545;-79
2021/03/03 09:20:03;;;;;;;34.10;21.15;;;11.90;70.20;;;;;;5052232;28;20504;-79
2021/03/03 09:22:33;;;;;;;41.08;23.05;;;12.00;70.10;;;;;;5053311;28;20473;-79
2021/03/03 09:25:11;;;;;;;43.17;22.83;;;12.00;70.00;;;;;;5053651;28;20033;-79
2021/03/03 09:27:37;;;;;;;42.35;22.88;;;12.10;70.10;;;;;;5064283;28;20021;-79
2021/03/03 09:30:03;;;;;;;41.13;22.00;;;12.30;70.00;;;;;;5034997;28;20393;-78
2021/03/03 09:32:29;;;;;;;37.55;21.35;;;12.40;69.90;;;;;;5035367;28;20400;-79
2021/03/03 09:35:03;;;;;;;47.40;26.52;;;12.50;69.60;;;;;;5053232;28;20037;-77
2021/03/03 09:37:43;;;;;;;51.50;27.08;;;12.60;70.20;;;;;;5051892;28;20021;-78
2021/03/03 09:40:14;;;;;;;58.10;27.23;;;12.60;69.40;;;;;;5052106;28;20025;-78
2021/03/03 09:42:48;;;;;;;46.55;27.77;;;12.80;69.20;;;;;;5033558;28;20044;-77
2021/03/03 09:45:19;;;;;;;44.50;26.13;;;12.80;68.10;;;;;;5043798;28;20032;-78
2021/03/03 09:47:45;;;;;;;48.67;27.98;;;12.80;68.10;;;;;;5052076;28;20033;-78
2021/03/03 09:50:12;;;;;;;46.25;25.92;;;12.80;67.90;;;;;;5035208;28;20026;-77
2021/03/03 09:52:39;;;;;;;46.35;28.15;;;12.90;68.00;;;;;;5051827;28;20041;-76
2021/03/03 09:55:15;;;;;;;45.40;26.75;;;13.00;68.00;;;;;;5050899;28;20024;-77
2021/03/03 09:57:42;;;;;;;53.10;29.40;;;13.00;67.70;;;;;;5051043;28;20397;-77
2021/03/03 10:00:15;;;;;;;49.17;29.92;;;13.00;67.50;;;;;;5051629;28;20029;-76
2021/03/03 10:02:47;;;;;;;49.17;28.42;;;13.10;67.50;;;;;;5051813;28;20465;-76
2021/03/03 10:05:20;;;;;;;49.53;29.10;;;13.20;67.50;;;;;;5053310;28;20025;-77
2021/03/03 10:08:15;;;;;;;50.58;29.00;;;13.20;67.40;;;;;;5052133;28;20021;-77
2021/03/03 10:10:54;;;;;;;54.30;29.90;;;13.30;67.70;;;;;;5047455;28;20037;-79
2021/03/03 10:13:21;;;;;;;47.97;29.92;;;13.50;66.80;;;;;;5054652;28;20487;-79
2021/03/03 10:15:47;;;;;;;45.83;27.65;;;13.50;66.80;;;;;;5035627;28;20029;-79
2021/03/03 10:18:13;;;;;;;52.00;28.48;;;13.70;66.70;;;;;;5035552;28;20484;-78
2021/03/03 10:20:51;;;;;;;49.72;28.50;;;13.80;66.50;;;;;;5053187;28;20021;-79
2021/03/03 10:23:19;;;;;;;46.83;29.97;;;13.90;66.20;;;;;;5051689;28;20026;-84
2021/03/03 10:25:51;;;;;;;60.97;34.33;;;13.90;66.20;;;;;;5052040;28;20247;-78
2021/03/03 10:28:17;;;;;;;55.13;32.83;;;14.00;65.20;;;;;;5050444;28;20466;-80
2021/03/03 10:30:44;;;;;;;51.80;30.23;;;14.10;65.40;;;;;;5050980;28;20040;-80
2021/03/03 10:33:11;;;;;;;49.80;29.25;;;14.20;65.50;;;;;;5052106;28;20027;-80
2021/03/03 10:35:50;;;;;;;48.67;29.73;;;14.30;65.20;;;;;;5051595;28;20044;-80
2021/03/03 10:38:18;;;;;;;64.78;35.45;;;14.30;64.80;;;;;;5051835;28;20025;-82
2021/03/03 10:40:45;;;;;;;64.03;36.10;;;14.40;64.70;;;;;;5018872;28;20078;-80
2021/03/03 10:43:22;;;;;;;60.90;34.83;;;14.40;63.70;;;;;;5051596;28;20021;-79
2021/03/03 10:46:06;;;;;;;51.45;30.98;;;14.40;64.20;;;;;;5048950;28;20021;-79
2021/03/03 10:48:32;;;;;;;55.53;31.65;;;14.50;64.50;;;;;;5068651;28;20033;-82
2021/03/03 10:51:01;;;;;;;48.85;29.63;;;14.70;64.20;;;;;;5032267;28;20090;-81
2021/03/03 10:53:57;;;;;;;45.75;29.08;;;14.80;63.70;;;;;;5039202;28;20103;-83
2021/03/03 10:56:26;;;;;;;50.45;29.58;;;14.90;63.70;;;;;;5054656;28;20377;-82
2021/03/03 10:58:53;;;;;;;50.58;30.40;;;15.00;63.50;;;;;;5053743;28;20047;-80
2021/03/03 11:01:19;;;;;;;54.40;30.02;;;15.10;63.20;;;;;;5055779;28;20424;-82
2021/03/03 11:03:57;;;;;;;48.95;30.35;;;15.20;63.00;;;;;;5034303;28;20036;-81
2021/03/03 11:06:26;;;;;;;52.40;29.77;;;15.30;62.50;;;;;;5057209;28;20119;-79
2021/03/03 11:08:52;;;;;;;52.15;31.58;;;15.40;62.40;;;;;;5054898;28;20086;-81
2021/03/03 11:11:18;;;;;;;56.03;31.15;;;15.50;61.20;;;;;;5038583;28;20029;-80
2021/03/03 11:13:43;;;;;;;57.78;32.85;;;15.50;61.00;;;;;;5038195;28;20037;-81
2021/03/03 11:16:09;;;;;;;50.83;28.90;;;15.60;60.00;;;;;;5054109;28;20478;-81
2021/03/03 11:18:34;;;;;;;59.78;32.38;;;15.60;60.30;;;;;;5038114;28;20112;-81
2021/03/03 11:21:00;;;;;;;53.30;30.10;;;15.70;60.10;;;;;;5054675;28;20032;-81
2021/03/03 11:23:27;;;;;;;49.45;28.40;;;15.70;59.70;;;;;;5054804;28;20530;-84
2021/03/03 11:25:54;;;;;;;47.70;28.52;;;15.80;60.40;;;;;;5034804;28;20099;-83
2021/03/03 11:28:19;;;;;;;57.85;31.23;;;15.80;59.50;;;;;;5051882;28;20033;-78
2021/03/03 11:30:45;;;;;;;47.75;28.52;;;15.90;59.20;;;;;;5054923;28;20366;-78
2021/03/03 11:33:11;;;;;;;51.50;28.13;;;16.00;59.30;;;;;;5054521;28;20032;-77
2021/03/03 11:35:37;;;;;;;54.03;29.63;;;16.20;59.20;;;;;;5055107;28;20052;-77
2021/03/03 11:38:03;;;;;;;53.05;30.40;;;16.30;58.50;;;;;;5054708;28;20090;-78
2021/03/03 11:40:28;;;;;;;55.95;28.35;;;16.30;57.70;;;;;;5054235;28;20025;-78
2021/03/03 11:42:54;;;;;;;50.72;30.55;;;16.40;57.80;;;;;;5021526;28;20021;-78
2021/03/03 11:45:20;;;;;;;47.63;27.65;;;16.40;57.90;;;;;;5037706;28;20478;-78
2021/03/03 11:47:46;;;;;;;45.15;25.80;;;16.50;58.20;;;;;;5054297;28;20036;-79
2021/03/03 11:50:12;;;;;;;56.92;29.55;;;16.70;58.20;;;;;;5053946;28;20466;-80
2021/03/03 11:52:38;;;;;;;54.55;31.58;;;16.80;57.20;;;;;;5037560;28;20037;-77
2021/03/03 11:55:05;;;;;;;55.58;29.75;;;16.80;56.70;;;;;;5054266;28;20478;-77
2021/03/03 11:57:30;;;;;;;50.40;28.52;;;16.80;56.20;;;;;;5054260;28;20505;-78
2021/03/03 11:59:56;;;;;;;58.22;31.35;;;16.80;57.00;;;;;;5035344;28;20037;-78
2021/03/03 12:02:22;;;;;;;47.00;27.48;;;16.90;56.30;;;;;;5020730;28;20021;-78
2021/03/03 12:04:47;;;;;;;59.28;31.15;;;17.00;56.40;;;;;;5036791;28;20040;-78
2021/03/03 12:07:13;;;;;;;52.55;31.48;;;17.00;55.90;;;;;;5036856;28;20051;-78
2021/03/03 12:09:39;;;;;;;55.00;29.80;;;17.10;54.60;;;;;;5053900;28;20389;-78
2021/03/03 12:12:05;;;;;;;48.15;28.85;;;17.10;55.30;;;;;;5055121;28;20025;-78
2021/03/03 12:14:30;;;;;;;47.25;27.80;;;17.10;55.60;;;;;;5053289;28;20446;-78
2021/03/03 12:16:56;;;;;;;40.97;25.73;;;17.20;55.60;;;;;;5053379;28;20021;-78
2021/03/03 12:19:22;;;;;;;45.33;25.90;;;17.30;55.50;;;;;;5052448;28;20033;-76
2021/03/03 12:21:47;;;;;;;41.30;23.65;;;17.40;55.50;;;;;;5053710;28;20071;-76
2021/03/03 12:24:13;;;;;;;45.65;24.05;;;17.60;55.30;;;;;;5053134;28;20605;-76
2021/03/03 12:26:39;;;;;;;41.28;24.98;;;17.70;55.00;;;;;;5054719;28;20036;-76
2021/03/03 12:29:05;;;;;;;41.28;24.80;;;17.70;54.60;;;;;;5036377;28;20120;-76
2021/03/03 12:31:31;;;;;;;45.00;25.30;;;17.80;54.20;;;;;;5037234;28;20385;-76
2021/03/03 12:33:57;;;;;;;44.95;27.45;;;17.90;54.40;;;;;;5053696;28;20473;-76
2021/03/03 12:36:23;;;;;;;44.22;24.25;;;18.00;53.90;;;;;;5036948;28;20041;-76
2021/03/03 12:38:49;;;;;;;47.80;24.05;;;18.00;54.00;;;;;;5053258;28;20056;-77